sensor_id;sensor_type;location;lat;lon;timestamp;P1;durP1;ratioP1;P2;durP2;ratioP2
13660;SDS011;6903;49.480;11.102;2023-12-20T00:02:19;5.03;;;3.67;;
13660;SDS011;6903;49.480;11.102;2023-12-20T00:04:45;4.63;;;3.50;;
13660;SDS011;6903;49.480;11.102;2023-12-20T00:07:10;4.70;;;3.00;;
13660;SDS011;6903;49.480;11.102;2023-12-20T00:09:35;5.67;;;3.20;;
13660;SDS011;6903;49.480;11.102;2023-12-20T00:12:00;5.70;;;3.77;;
13660;SDS011;6903;49.480;11.102;2023-12-20T00:14:25;4.63;;;3.20;;
13660;SDS011;6903;49.480;11.102;2023-12-20T00:16:51;4.80;;;3.20;;
13660;SDS011;6903;49.480;11.102;2023-12-20T00:19:16;4.03;;;3.03;;
13660;SDS011;6903;49.480;11.102;2023-12-20T00:21:41;4.10;;;3.00;;
13660;SDS011;6903;49.480;11.102;2023-12-20T00:24:07;3.50;;;3.03;;
13660;SDS011;6903;49.480;11.102;2023-12-20T00:26:32;6.43;;;3.07;;
13660;SDS011;6903;49.480;11.102;2023-12-20T00:28:57;5.03;;;3.20;;
13660;SDS011;6903;49.480;11.102;2023-12-20T00:31:22;5.03;;;3.00;;
13660;SDS011;6903;49.480;11.102;2023-12-20T00:33:47;4.90;;;3.10;;
13660;SDS011;6903;49.480;11.102;2023-12-20T00:36:13;5.03;;;2.97;;
13660;SDS011;6903;49.480;11.102;2023-12-20T00:38:38;5.17;;;3.10;;
13660;SDS011;6903;49.480;11.102;2023-12-20T00:41:03;4.30;;;2.77;;
13660;SDS011;6903;49.480;11.102;2023-12-20T00:43:28;4.80;;;2.60;;
13660;SDS011;6903;49.480;11.102;2023-12-20T00:45:53;5.77;;;3.30;;
13660;SDS011;6903;49.480;11.102;2023-12-20T00:48:20;2.93;;;2.40;;
13660;SDS011;6903;49.480;11.102;2023-12-20T00:50:45;3.77;;;2.60;;
13660;SDS011;6903;49.480;11.102;2023-12-20T00:53:10;5.50;;;3.30;;
13660;SDS011;6903;49.480;11.102;2023-12-20T00:55:35;3.73;;;2.87;;
13660;SDS011;6903;49.480;11.102;2023-12-20T00:58:01;5.07;;;3.20;;
13660;SDS011;6903;49.480;11.102;2023-12-20T01:00:26;4.33;;;2.83;;
13660;SDS011;6903;49.480;11.102;2023-12-20T01:02:51;6.47;;;3.17;;
13660;SDS011;6903;49.480;11.102;2023-12-20T01:05:20;4.80;;;3.10;;
13660;SDS011;6903;49.480;11.102;2023-12-20T01:07:48;3.07;;;2.77;;
13660;SDS011;6903;49.480;11.102;2023-12-20T01:10:13;5.77;;;3.10;;
13660;SDS011;6903;49.480;11.102;2023-12-20T01:12:38;5.40;;;2.77;;
13660;SDS011;6903;49.480;11.102;2023-12-20T01:15:03;3.67;;;2.67;;
13660;SDS011;6903;49.480;11.102;2023-12-20T01:17:29;4.13;;;2.70;;
13660;SDS011;6903;49.480;11.102;2023-12-20T01:19:54;4.90;;;2.87;;
13660;SDS011;6903;49.480;11.102;2023-12-20T01:22:19;3.40;;;2.50;;
13660;SDS011;6903;49.480;11.102;2023-12-20T01:24:44;4.87;;;2.33;;
13660;SDS011;6903;49.480;11.102;2023-12-20T01:27:09;2.23;;;1.77;;
13660;SDS011;6903;49.480;11.102;2023-12-20T01:29:35;3.67;;;2.00;;
13660;SDS011;6903;49.480;11.102;2023-12-20T01:32:00;2.67;;;1.87;;
13660;SDS011;6903;49.480;11.102;2023-12-20T01:34:25;2.10;;;1.67;;
13660;SDS011;6903;49.480;11.102;2023-12-20T01:36:50;2.30;;;1.70;;
13660;SDS011;6903;49.480;11.102;2023-12-20T01:39:16;2.13;;;1.73;;
13660;SDS011;6903;49.480;11.102;2023-12-20T01:41:41;2.03;;;1.70;;
13660;SDS011;6903;49.480;11.102;2023-12-20T01:44:07;2.53;;;1.70;;
13660;SDS011;6903;49.480;11.102;2023-12-20T01:46:32;1.67;;;1.40;;
13660;SDS011;6903;49.480;11.102;2023-12-20T01:48:57;1.70;;;1.60;;
13660;SDS011;6903;49.480;11.102;2023-12-20T01:51:22;1.87;;;1.50;;
13660;SDS011;6903;49.480;11.102;2023-12-20T01:53:48;2.53;;;1.33;;
13660;SDS011;6903;49.480;11.102;2023-12-20T01:56:13;2.07;;;1.47;;
13660;SDS011;6903;49.480;11.102;2023-12-20T01:58:41;2.10;;;1.40;;
13660;SDS011;6903;49.480;11.102;2023-12-20T02:01:08;1.93;;;1.30;;
13660;SDS011;6903;49.480;11.102;2023-12-20T02:03:34;2.47;;;1.30;;
13660;SDS011;6903;49.480;11.102;2023-12-20T02:06:01;2.77;;;1.40;;
13660;SDS011;6903;49.480;11.102;2023-12-20T02:08:26;1.40;;;1.30;;
13660;SDS011;6903;49.480;11.102;2023-12-20T02:10:52;2.10;;;1.40;;
13660;SDS011;6903;49.480;11.102;2023-12-20T02:13:17;2.40;;;1.27;;
13660;SDS011;6903;49.480;11.102;2023-12-20T02:15:42;2.37;;;1.37;;
13660;SDS011;6903;49.480;11.102;2023-12-20T02:18:08;1.47;;;1.30;;
13660;SDS011;6903;49.480;11.102;2023-12-20T02:20:33;1.37;;;1.10;;
13660;SDS011;6903;49.480;11.102;2023-12-20T02:22:59;1.20;;;1.00;;
13660;SDS011;6903;49.480;11.102;2023-12-20T02:25:24;1.23;;;1.10;;
13660;SDS011;6903;49.480;11.102;2023-12-20T02:27:49;1.07;;;0.83;;
13660;SDS011;6903;49.480;11.102;2023-12-20T02:30:14;1.13;;;0.90;;
13660;SDS011;6903;49.480;11.102;2023-12-20T02:32:40;1.23;;;1.10;;
13660;SDS011;6903;49.480;11.102;2023-12-20T02:35:05;2.37;;;1.10;;
13660;SDS011;6903;49.480;11.102;2023-12-20T02:37:30;1.37;;;0.90;;
13660;SDS011;6903;49.480;11.102;2023-12-20T02:39:55;0.90;;;0.70;;
13660;SDS011;6903;49.480;11.102;2023-12-20T02:42:20;0.97;;;0.80;;
13660;SDS011;6903;49.480;11.102;2023-12-20T02:44:46;1.30;;;1.00;;
13660;SDS011;6903;49.480;11.102;2023-12-20T02:47:11;0.93;;;0.80;;
13660;SDS011;6903;49.480;11.102;2023-12-20T02:49:36;1.10;;;0.80;;
13660;SDS011;6903;49.480;11.102;2023-12-20T02:52:01;1.47;;;0.80;;
13660;SDS011;6903;49.480;11.102;2023-12-20T02:54:26;0.70;;;0.67;;
13660;SDS011;6903;49.480;11.102;2023-12-20T02:56:52;1.00;;;0.90;;
13660;SDS011;6903;49.480;11.102;2023-12-20T02:59:17;1.07;;;0.93;;
13660;SDS011;6903;49.480;11.102;2023-12-20T03:01:43;0.70;;;0.60;;
13660;SDS011;6903;49.480;11.102;2023-12-20T03:04:08;0.67;;;0.60;;
13660;SDS011;6903;49.480;11.102;2023-12-20T03:06:33;0.63;;;0.60;;
13660;SDS011;6903;49.480;11.102;2023-12-20T03:08:58;1.00;;;0.80;;
13660;SDS011;6903;49.480;11.102;2023-12-20T03:11:26;1.40;;;0.80;;
13660;SDS011;6903;49.480;11.102;2023-12-20T03:13:51;0.80;;;0.70;;
13660;SDS011;6903;49.480;11.102;2023-12-20T03:16:16;1.80;;;1.00;;
13660;SDS011;6903;49.480;11.102;2023-12-20T03:18:41;0.73;;;0.73;;
13660;SDS011;6903;49.480;11.102;2023-12-20T03:21:07;1.00;;;0.70;;
13660;SDS011;6903;49.480;11.102;2023-12-20T03:23:32;0.93;;;0.70;;
13660;SDS011;6903;49.480;11.102;2023-12-20T03:25:58;0.83;;;0.83;;
13660;SDS011;6903;49.480;11.102;2023-12-20T03:28:24;0.80;;;0.70;;
13660;SDS011;6903;49.480;11.102;2023-12-20T03:30:49;0.80;;;0.73;;
13660;SDS011;6903;49.480;11.102;2023-12-20T03:33:15;0.60;;;0.60;;
13660;SDS011;6903;49.480;11.102;2023-12-20T03:35:40;0.80;;;0.73;;
13660;SDS011;6903;49.480;11.102;2023-12-20T03:38:05;0.60;;;0.60;;
13660;SDS011;6903;49.480;11.102;2023-12-20T03:40:30;0.70;;;0.60;;
13660;SDS011;6903;49.480;11.102;2023-12-20T03:42:55;0.90;;;0.70;;
13660;SDS011;6903;49.480;11.102;2023-12-20T03:45:21;0.80;;;0.60;;
13660;SDS011;6903;49.480;11.102;2023-12-20T03:47:46;0.60;;;0.60;;
13660;SDS011;6903;49.480;11.102;2023-12-20T03:50:11;0.90;;;0.73;;
13660;SDS011;6903;49.480;11.102;2023-12-20T03:52:37;0.60;;;0.60;;
13660;SDS011;6903;49.480;11.102;2023-12-20T03:55:02;0.60;;;0.60;;
13660;SDS011;6903;49.480;11.102;2023-12-20T03:57:28;0.70;;;0.70;;
13660;SDS011;6903;49.480;11.102;2023-12-20T03:59:53;0.97;;;0.70;;
13660;SDS011;6903;49.480;11.102;2023-12-20T04:02:18;0.70;;;0.70;;
13660;SDS011;6903;49.480;11.102;2023-12-20T04:04:43;1.43;;;1.10;;
13660;SDS011;6903;49.480;11.102;2023-12-20T04:07:08;1.07;;;0.70;;
13660;SDS011;6903;49.480;11.102;2023-12-20T04:09:34;1.43;;;0.90;;
13660;SDS011;6903;49.480;11.102;2023-12-20T04:11:59;0.90;;;0.63;;
13660;SDS011;6903;49.480;11.102;2023-12-20T04:14:24;0.90;;;0.80;;
13660;SDS011;6903;49.480;11.102;2023-12-20T04:16:49;0.80;;;0.70;;
13660;SDS011;6903;49.480;11.102;2023-12-20T04:19:15;1.07;;;0.93;;
13660;SDS011;6903;49.480;11.102;2023-12-20T04:21:40;1.67;;;0.93;;
13660;SDS011;6903;49.480;11.102;2023-12-20T04:24:05;1.27;;;1.00;;
13660;SDS011;6903;49.480;11.102;2023-12-20T04:26:30;0.90;;;0.70;;
13660;SDS011;6903;49.480;11.102;2023-12-20T04:28:55;0.70;;;0.70;;
13660;SDS011;6903;49.480;11.102;2023-12-20T04:31:21;0.83;;;0.83;;
13660;SDS011;6903;49.480;11.102;2023-12-20T04:33:46;1.00;;;0.90;;
13660;SDS011;6903;49.480;11.102;2023-12-20T04:36:11;0.80;;;0.80;;
13660;SDS011;6903;49.480;11.102;2023-12-20T04:38:36;1.13;;;1.03;;
13660;SDS011;6903;49.480;11.102;2023-12-20T04:41:02;1.37;;;1.00;;
13660;SDS011;6903;49.480;11.102;2023-12-20T04:43:27;0.70;;;0.70;;
13660;SDS011;6903;49.480;11.102;2023-12-20T04:45:54;1.20;;;0.90;;
13660;SDS011;6903;49.480;11.102;2023-12-20T04:48:19;1.17;;;0.97;;
13660;SDS011;6903;49.480;11.102;2023-12-20T04:50:45;1.03;;;0.73;;
13660;SDS011;6903;49.480;11.102;2023-12-20T04:53:10;1.10;;;0.90;;
13660;SDS011;6903;49.480;11.102;2023-12-20T04:55:35;0.97;;;0.87;;
13660;SDS011;6903;49.480;11.102;2023-12-20T04:58:00;1.03;;;0.93;;
13660;SDS011;6903;49.480;11.102;2023-12-20T05:00:25;1.00;;;0.90;;
13660;SDS011;6903;49.480;11.102;2023-12-20T05:02:51;1.00;;;0.83;;
13660;SDS011;6903;49.480;11.102;2023-12-20T05:05:16;0.80;;;0.80;;
13660;SDS011;6903;49.480;11.102;2023-12-20T05:07:42;0.70;;;0.70;;
13660;SDS011;6903;49.480;11.102;2023-12-20T05:10:08;0.70;;;0.70;;
13660;SDS011;6903;49.480;11.102;2023-12-20T05:12:33;0.90;;;0.80;;
13660;SDS011;6903;49.480;11.102;2023-12-20T05:14:59;1.07;;;0.83;;
13660;SDS011;6903;49.480;11.102;2023-12-20T05:17:24;0.87;;;0.80;;
13660;SDS011;6903;49.480;11.102;2023-12-20T05:19:50;0.97;;;0.87;;
13660;SDS011;6903;49.480;11.102;2023-12-20T05:22:15;1.10;;;0.97;;
13660;SDS011;6903;49.480;11.102;2023-12-20T05:24:40;1.40;;;1.20;;
13660;SDS011;6903;49.480;11.102;2023-12-20T05:27:05;0.80;;;0.70;;
13660;SDS011;6903;49.480;11.102;2023-12-20T05:29:30;1.30;;;1.10;;
13660;SDS011;6903;49.480;11.102;2023-12-20T05:31:58;1.10;;;1.00;;
13660;SDS011;6903;49.480;11.102;2023-12-20T05:34:23;0.97;;;0.80;;
13660;SDS011;6903;49.480;11.102;2023-12-20T05:36:49;0.83;;;0.70;;
13660;SDS011;6903;49.480;11.102;2023-12-20T05:39:14;1.37;;;1.10;;
13660;SDS011;6903;49.480;11.102;2023-12-20T05:41:39;1.00;;;0.90;;
13660;SDS011;6903;49.480;11.102;2023-12-20T05:44:04;1.20;;;0.90;;
13660;SDS011;6903;49.480;11.102;2023-12-20T05:46:29;1.53;;;1.10;;
13660;SDS011;6903;49.480;11.102;2023-12-20T05:48:55;1.27;;;1.17;;
13660;SDS011;6903;49.480;11.102;2023-12-20T05:51:20;1.60;;;1.10;;
13660;SDS011;6903;49.480;11.102;2023-12-20T05:53:45;2.60;;;1.57;;
13660;SDS011;6903;49.480;11.102;2023-12-20T05:56:10;1.33;;;1.17;;
13660;SDS011;6903;49.480;11.102;2023-12-20T05:58:36;1.27;;;1.10;;
13660;SDS011;6903;49.480;11.102;2023-12-20T06:01:04;1.20;;;0.87;;
13660;SDS011;6903;49.480;11.102;2023-12-20T06:03:29;0.93;;;0.80;;
13660;SDS011;6903;49.480;11.102;2023-12-20T06:05:54;1.47;;;1.07;;
13660;SDS011;6903;49.480;11.102;2023-12-20T06:08:20;1.77;;;1.27;;
13660;SDS011;6903;49.480;11.102;2023-12-20T06:10:45;1.03;;;0.93;;
13660;SDS011;6903;49.480;11.102;2023-12-20T06:13:10;1.57;;;1.10;;
13660;SDS011;6903;49.480;11.102;2023-12-20T06:15:36;1.40;;;1.00;;
13660;SDS011;6903;49.480;11.102;2023-12-20T06:18:02;1.60;;;1.30;;
13660;SDS011;6903;49.480;11.102;2023-12-20T06:20:27;1.23;;;1.13;;
13660;SDS011;6903;49.480;11.102;2023-12-20T06:22:52;2.73;;;1.13;;
13660;SDS011;6903;49.480;11.102;2023-12-20T06:25:17;1.60;;;1.37;;
13660;SDS011;6903;49.480;11.102;2023-12-20T06:27:42;1.57;;;1.20;;
13660;SDS011;6903;49.480;11.102;2023-12-20T06:30:08;1.40;;;1.30;;
13660;SDS011;6903;49.480;11.102;2023-12-20T06:32:36;2.30;;;1.10;;
13660;SDS011;6903;49.480;11.102;2023-12-20T06:35:02;2.40;;;1.63;;
13660;SDS011;6903;49.480;11.102;2023-12-20T06:37:29;1.47;;;1.33;;
13660;SDS011;6903;49.480;11.102;2023-12-20T06:39:55;2.40;;;1.47;;
13660;SDS011;6903;49.480;11.102;2023-12-20T06:42:21;2.07;;;1.70;;
13660;SDS011;6903;49.480;11.102;2023-12-20T06:44:46;2.00;;;1.80;;
13660;SDS011;6903;49.480;11.102;2023-12-20T06:47:12;2.63;;;1.80;;
13660;SDS011;6903;49.480;11.102;2023-12-20T06:49:39;1.93;;;1.77;;
13660;SDS011;6903;49.480;11.102;2023-12-20T06:52:04;1.90;;;1.70;;
13660;SDS011;6903;49.480;11.102;2023-12-20T06:54:29;2.30;;;1.67;;
13660;SDS011;6903;49.480;11.102;2023-12-20T06:56:54;2.07;;;1.80;;
13660;SDS011;6903;49.480;11.102;2023-12-20T06:59:19;2.03;;;1.60;;
13660;SDS011;6903;49.480;11.102;2023-12-20T07:01:47;3.17;;;1.97;;
13660;SDS011;6903;49.480;11.102;2023-12-20T07:04:12;2.70;;;2.20;;
13660;SDS011;6903;49.480;11.102;2023-12-20T07:06:37;2.30;;;1.90;;
13660;SDS011;6903;49.480;11.102;2023-12-20T07:09:03;2.23;;;1.77;;
13660;SDS011;6903;49.480;11.102;2023-12-20T07:11:28;3.00;;;1.90;;
13660;SDS011;6903;49.480;11.102;2023-12-20T07:13:53;2.60;;;2.03;;
13660;SDS011;6903;49.480;11.102;2023-12-20T07:16:18;2.10;;;1.90;;
13660;SDS011;6903;49.480;11.102;2023-12-20T07:18:43;2.67;;;2.17;;
13660;SDS011;6903;49.480;11.102;2023-12-20T07:21:09;2.73;;;1.80;;
13660;SDS011;6903;49.480;11.102;2023-12-20T07:23:34;3.10;;;1.97;;
13660;SDS011;6903;49.480;11.102;2023-12-20T07:25:59;2.70;;;2.07;;
13660;SDS011;6903;49.480;11.102;2023-12-20T07:28:24;2.73;;;2.13;;
13660;SDS011;6903;49.480;11.102;2023-12-20T07:30:50;3.13;;;2.33;;
13660;SDS011;6903;49.480;11.102;2023-12-20T07:33:15;2.70;;;2.20;;
13660;SDS011;6903;49.480;11.102;2023-12-20T07:35:40;4.00;;;2.53;;
13660;SDS011;6903;49.480;11.102;2023-12-20T07:38:05;2.83;;;2.23;;
13660;SDS011;6903;49.480;11.102;2023-12-20T07:40:31;4.03;;;2.67;;
13660;SDS011;6903;49.480;11.102;2023-12-20T07:42:56;3.23;;;2.30;;
13660;SDS011;6903;49.480;11.102;2023-12-20T07:45:23;4.07;;;2.80;;
13660;SDS011;6903;49.480;11.102;2023-12-20T07:47:48;3.03;;;2.33;;
13660;SDS011;6903;49.480;11.102;2023-12-20T07:50:14;3.80;;;2.70;;
13660;SDS011;6903;49.480;11.102;2023-12-20T07:52:39;3.37;;;2.40;;
13660;SDS011;6903;49.480;11.102;2023-12-20T07:55:04;6.10;;;3.60;;
13660;SDS011;6903;49.480;11.102;2023-12-20T07:57:30;3.07;;;2.33;;
13660;SDS011;6903;49.480;11.102;2023-12-20T07:59:55;4.30;;;2.63;;
13660;SDS011;6903;49.480;11.102;2023-12-20T08:02:20;3.53;;;2.70;;
13660;SDS011;6903;49.480;11.102;2023-12-20T08:04:46;3.27;;;2.47;;
13660;SDS011;6903;49.480;11.102;2023-12-20T08:07:11;3.70;;;2.80;;
13660;SDS011;6903;49.480;11.102;2023-12-20T08:09:36;3.90;;;2.63;;
13660;SDS011;6903;49.480;11.102;2023-12-20T08:12:01;4.20;;;2.60;;
13660;SDS011;6903;49.480;11.102;2023-12-20T08:14:27;3.90;;;2.83;;
13660;SDS011;6903;49.480;11.102;2023-12-20T08:16:52;4.10;;;2.87;;
13660;SDS011;6903;49.480;11.102;2023-12-20T08:19:17;3.47;;;2.77;;
13660;SDS011;6903;49.480;11.102;2023-12-20T08:21:42;3.93;;;2.77;;
13660;SDS011;6903;49.480;11.102;2023-12-20T08:24:08;4.23;;;2.87;;
13660;SDS011;6903;49.480;11.102;2023-12-20T08:26:33;4.33;;;2.73;;
13660;SDS011;6903;49.480;11.102;2023-12-20T08:28:58;3.63;;;2.77;;
13660;SDS011;6903;49.480;11.102;2023-12-20T08:31:23;4.00;;;2.60;;
13660;SDS011;6903;49.480;11.102;2023-12-20T08:33:49;3.53;;;2.63;;
13660;SDS011;6903;49.480;11.102;2023-12-20T08:36:14;3.83;;;2.77;;
13660;SDS011;6903;49.480;11.102;2023-12-20T08:38:39;3.37;;;2.63;;
13660;SDS011;6903;49.480;11.102;2023-12-20T08:41:04;4.60;;;3.03;;
13660;SDS011;6903;49.480;11.102;2023-12-20T08:43:36;4.10;;;3.00;;
13660;SDS011;6903;49.480;11.102;2023-12-20T08:46:01;4.23;;;3.13;;
13660;SDS011;6903;49.480;11.102;2023-12-20T08:48:28;3.60;;;2.80;;
13660;SDS011;6903;49.480;11.102;2023-12-20T08:50:53;3.87;;;3.10;;
13660;SDS011;6903;49.480;11.102;2023-12-20T08:53:18;4.47;;;3.00;;
13660;SDS011;6903;49.480;11.102;2023-12-20T08:55:44;4.03;;;3.07;;
13660;SDS011;6903;49.480;11.102;2023-12-20T08:58:09;5.53;;;3.00;;
13660;SDS011;6903;49.480;11.102;2023-12-20T09:00:34;4.10;;;2.77;;
13660;SDS011;6903;49.480;11.102;2023-12-20T09:03:01;3.93;;;2.87;;
13660;SDS011;6903;49.480;11.102;2023-12-20T09:05:26;3.97;;;3.00;;
13660;SDS011;6903;49.480;11.102;2023-12-20T09:07:51;4.40;;;2.90;;
13660;SDS011;6903;49.480;11.102;2023-12-20T09:10:16;4.37;;;3.10;;
13660;SDS011;6903;49.480;11.102;2023-12-20T09:12:46;4.57;;;2.97;;
13660;SDS011;6903;49.480;11.102;2023-12-20T09:15:12;4.20;;;3.07;;
13660;SDS011;6903;49.480;11.102;2023-12-20T09:17:38;4.33;;;3.10;;
13660;SDS011;6903;49.480;11.102;2023-12-20T09:20:03;3.73;;;2.63;;
13660;SDS011;6903;49.480;11.102;2023-12-20T09:22:31;5.00;;;3.10;;
13660;SDS011;6903;49.480;11.102;2023-12-20T09:24:57;4.23;;;2.87;;
13660;SDS011;6903;49.480;11.102;2023-12-20T09:27:22;5.07;;;3.43;;
13660;SDS011;6903;49.480;11.102;2023-12-20T09:29:47;6.90;;;3.47;;
13660;SDS011;6903;49.480;11.102;2023-12-20T09:32:13;5.20;;;3.50;;
13660;SDS011;6903;49.480;11.102;2023-12-20T09:34:38;4.73;;;2.97;;
13660;SDS011;6903;49.480;11.102;2023-12-20T09:37:03;6.23;;;3.17;;
13660;SDS011;6903;49.480;11.102;2023-12-20T09:39:29;4.00;;;2.97;;
13660;SDS011;6903;49.480;11.102;2023-12-20T09:44:21;3.60;;;2.65;;
13660;SDS011;6903;49.480;11.102;2023-12-20T09:46:49;3.10;;;2.57;;
13660;SDS011;6903;49.480;11.102;2023-12-20T09:49:14;5.43;;;2.47;;
13660;SDS011;6903;49.480;11.102;2023-12-20T09:51:40;2.53;;;2.20;;
13660;SDS011;6903;49.480;11.102;2023-12-20T09:54:06;3.17;;;2.10;;
13660;SDS011;6903;49.480;11.102;2023-12-20T09:56:32;3.33;;;1.70;;
13660;SDS011;6903;49.480;11.102;2023-12-20T09:58:57;2.47;;;1.57;;
13660;SDS011;6903;49.480;11.102;2023-12-20T10:01:23;4.63;;;1.70;;
13660;SDS011;6903;49.480;11.102;2023-12-20T10:03:48;3.00;;;1.40;;
13660;SDS011;6903;49.480;11.102;2023-12-20T10:06:15;1.87;;;1.30;;
13660;SDS011;6903;49.480;11.102;2023-12-20T10:08:41;4.10;;;1.50;;
13660;SDS011;6903;49.480;11.102;2023-12-20T10:11:06;1.43;;;1.20;;
13660;SDS011;6903;49.480;11.102;2023-12-20T10:13:31;2.00;;;1.40;;
13660;SDS011;6903;49.480;11.102;2023-12-20T10:15:56;2.10;;;1.23;;
13660;SDS011;6903;49.480;11.102;2023-12-20T10:18:22;4.30;;;1.43;;
13660;SDS011;6903;49.480;11.102;2023-12-20T10:20:47;1.30;;;1.13;;
13660;SDS011;6903;49.480;11.102;2023-12-20T10:23:13;2.73;;;1.00;;
13660;SDS011;6903;49.480;11.102;2023-12-20T10:25:39;2.13;;;1.13;;
13660;SDS011;6903;49.480;11.102;2023-12-20T10:28:23;1.40;;;1.30;;
13660;SDS011;6903;49.480;11.102;2023-12-20T10:30:52;1.47;;;1.10;;
13660;SDS011;6903;49.480;11.102;2023-12-20T10:33:24;3.83;;;1.40;;
13660;SDS011;6903;49.480;11.102;2023-12-20T10:35:49;2.47;;;1.10;;
13660;SDS011;6903;49.480;11.102;2023-12-20T10:38:15;2.87;;;1.20;;
13660;SDS011;6903;49.480;11.102;2023-12-20T10:40:40;2.17;;;1.00;;
13660;SDS011;6903;49.480;11.102;2023-12-20T10:43:05;1.33;;;1.00;;
13660;SDS011;6903;49.480;11.102;2023-12-20T10:45:32;1.53;;;1.33;;
13660;SDS011;6903;49.480;11.102;2023-12-20T10:47:57;3.33;;;1.20;;
13660;SDS011;6903;49.480;11.102;2023-12-20T10:50:24;1.77;;;1.27;;
13660;SDS011;6903;49.480;11.102;2023-12-20T10:52:50;2.90;;;1.30;;
13660;SDS011;6903;49.480;11.102;2023-12-20T10:55:20;2.20;;;1.00;;
13660;SDS011;6903;49.480;11.102;2023-12-20T10:57:45;2.93;;;1.20;;
13660;SDS011;6903;49.480;11.102;2023-12-20T11:00:15;1.30;;;0.90;;
13660;SDS011;6903;49.480;11.102;2023-12-20T11:02:42;1.57;;;1.10;;
13660;SDS011;6903;49.480;11.102;2023-12-20T11:08:11;1.67;;;1.27;;
13660;SDS011;6903;49.480;11.102;2023-12-20T11:10:41;1.70;;;1.20;;
13660;SDS011;6903;49.480;11.102;2023-12-20T11:13:12;2.83;;;1.00;;
13660;SDS011;6903;49.480;11.102;2023-12-20T11:15:39;2.00;;;1.10;;
13660;SDS011;6903;49.480;11.102;2023-12-20T11:18:04;1.20;;;0.83;;
13660;SDS011;6903;49.480;11.102;2023-12-20T11:20:37;1.40;;;1.00;;
13660;SDS011;6903;49.480;11.102;2023-12-20T11:23:03;3.20;;;1.27;;
13660;SDS011;6903;49.480;11.102;2023-12-20T11:25:28;1.80;;;1.03;;
13660;SDS011;6903;49.480;11.102;2023-12-20T11:28:09;2.57;;;1.10;;
13660;SDS011;6903;49.480;11.102;2023-12-20T11:30:48;3.47;;;1.20;;
13660;SDS011;6903;49.480;11.102;2023-12-20T11:33:14;1.63;;;1.20;;
13660;SDS011;6903;49.480;11.102;2023-12-20T11:35:40;1.33;;;1.13;;
13660;SDS011;6903;49.480;11.102;2023-12-20T11:38:09;2.43;;;1.13;;
13660;SDS011;6903;49.480;11.102;2023-12-20T11:40:35;1.90;;;1.40;;
13660;SDS011;6903;49.480;11.102;2023-12-20T11:43:00;3.80;;;1.40;;
13660;SDS011;6903;49.480;11.102;2023-12-20T11:45:25;2.33;;;1.00;;
13660;SDS011;6903;49.480;11.102;2023-12-20T11:47:52;1.20;;;1.00;;
13660;SDS011;6903;49.480;11.102;2023-12-20T11:50:20;3.60;;;1.20;;
13660;SDS011;6903;49.480;11.102;2023-12-20T11:52:46;1.73;;;0.90;;
13660;SDS011;6903;49.480;11.102;2023-12-20T11:55:11;1.93;;;1.10;;
13660;SDS011;6903;49.480;11.102;2023-12-20T11:57:37;2.33;;;1.37;;
13660;SDS011;6903;49.480;11.102;2023-12-20T12:00:03;2.67;;;1.10;;
13660;SDS011;6903;49.480;11.102;2023-12-20T12:02:28;2.97;;;1.23;;
13660;SDS011;6903;49.480;11.102;2023-12-20T12:04:53;2.30;;;1.13;;
13660;SDS011;6903;49.480;11.102;2023-12-20T12:07:18;1.93;;;1.17;;
13660;SDS011;6903;49.480;11.102;2023-12-20T12:09:44;3.13;;;1.30;;
13660;SDS011;6903;49.480;11.102;2023-12-20T12:12:09;3.00;;;1.23;;
13660;SDS011;6903;49.480;11.102;2023-12-20T12:14:35;4.47;;;2.63;;
13660;SDS011;6903;49.480;11.102;2023-12-20T12:17:02;2.07;;;1.10;;
13660;SDS011;6903;49.480;11.102;2023-12-20T12:19:27;2.60;;;1.50;;
13660;SDS011;6903;49.480;11.102;2023-12-20T12:22:05;2.07;;;1.30;;
13660;SDS011;6903;49.480;11.102;2023-12-20T12:24:35;1.60;;;1.23;;
13660;SDS011;6903;49.480;11.102;2023-12-20T12:27:00;3.07;;;1.60;;
13660;SDS011;6903;49.480;11.102;2023-12-20T12:29:25;1.83;;;1.40;;
13660;SDS011;6903;49.480;11.102;2023-12-20T12:31:51;3.20;;;1.67;;
13660;SDS011;6903;49.480;11.102;2023-12-20T12:34:17;2.40;;;1.30;;
13660;SDS011;6903;49.480;11.102;2023-12-20T12:36:42;2.17;;;1.37;;
13660;SDS011;6903;49.480;11.102;2023-12-20T12:39:08;1.20;;;1.10;;
13660;SDS011;6903;49.480;11.102;2023-12-20T12:41:33;1.87;;;1.37;;
13660;SDS011;6903;49.480;11.102;2023-12-20T12:43:58;2.90;;;1.30;;
13660;SDS011;6903;49.480;11.102;2023-12-20T12:46:24;2.73;;;1.10;;
13660;SDS011;6903;49.480;11.102;2023-12-20T12:48:49;2.50;;;1.20;;
13660;SDS011;6903;49.480;11.102;2023-12-20T12:51:15;2.17;;;1.30;;
13660;SDS011;6903;49.480;11.102;2023-12-20T12:53:41;1.23;;;1.10;;
13660;SDS011;6903;49.480;11.102;2023-12-20T12:56:06;2.70;;;1.70;;
13660;SDS011;6903;49.480;11.102;2023-12-20T12:58:31;1.40;;;1.27;;
13660;SDS011;6903;49.480;11.102;2023-12-20T13:00:57;1.80;;;1.27;;
13660;SDS011;6903;49.480;11.102;2023-12-20T13:03:22;1.80;;;1.20;;
13660;SDS011;6903;49.480;11.102;2023-12-20T13:05:47;1.27;;;1.17;;
13660;SDS011;6903;49.480;11.102;2023-12-20T13:08:13;2.87;;;1.60;;
13660;SDS011;6903;49.480;11.102;2023-12-20T13:10:38;1.77;;;1.40;;
13660;SDS011;6903;49.480;11.102;2023-12-20T13:13:04;1.30;;;1.20;;
13660;SDS011;6903;49.480;11.102;2023-12-20T13:15:29;2.60;;;1.10;;
13660;SDS011;6903;49.480;11.102;2023-12-20T13:17:55;2.73;;;1.40;;
13660;SDS011;6903;49.480;11.102;2023-12-20T13:20:20;2.20;;;1.40;;
13660;SDS011;6903;49.480;11.102;2023-12-20T13:22:47;1.23;;;1.10;;
13660;SDS011;6903;49.480;11.102;2023-12-20T13:25:13;2.97;;;1.70;;
13660;SDS011;6903;49.480;11.102;2023-12-20T13:27:38;3.37;;;1.20;;
13660;SDS011;6903;49.480;11.102;2023-12-20T13:30:03;1.33;;;1.03;;
13660;SDS011;6903;49.480;11.102;2023-12-20T13:32:29;2.03;;;1.20;;
13660;SDS011;6903;49.480;11.102;2023-12-20T13:34:54;2.03;;;1.07;;
13660;SDS011;6903;49.480;11.102;2023-12-20T13:37:19;3.83;;;1.20;;
13660;SDS011;6903;49.480;11.102;2023-12-20T13:39:45;1.27;;;0.93;;
13660;SDS011;6903;49.480;11.102;2023-12-20T13:42:11;3.57;;;1.07;;
13660;SDS011;6903;49.480;11.102;2023-12-20T13:44:36;2.63;;;1.23;;
13660;SDS011;6903;49.480;11.102;2023-12-20T13:47:01;1.47;;;1.30;;
13660;SDS011;6903;49.480;11.102;2023-12-20T13:49:27;1.50;;;1.00;;
13660;SDS011;6903;49.480;11.102;2023-12-20T13:51:53;1.40;;;0.97;;
13660;SDS011;6903;49.480;11.102;2023-12-20T13:54:19;1.93;;;1.17;;
13660;SDS011;6903;49.480;11.102;2023-12-20T13:56:47;2.13;;;1.00;;
13660;SDS011;6903;49.480;11.102;2023-12-20T13:59:12;2.03;;;1.17;;
13660;SDS011;6903;49.480;11.102;2023-12-20T14:01:38;1.30;;;1.20;;
13660;SDS011;6903;49.480;11.102;2023-12-20T14:04:03;1.63;;;1.00;;
13660;SDS011;6903;49.480;11.102;2023-12-20T14:06:29;2.53;;;1.37;;
13660;SDS011;6903;49.480;11.102;2023-12-20T14:08:54;1.97;;;1.20;;
13660;SDS011;6903;49.480;11.102;2023-12-20T14:11:20;1.43;;;1.00;;
13660;SDS011;6903;49.480;11.102;2023-12-20T14:13:45;0.93;;;0.83;;
13660;SDS011;6903;49.480;11.102;2023-12-20T14:16:10;1.30;;;1.20;;
13660;SDS011;6903;49.480;11.102;2023-12-20T14:18:36;2.83;;;1.10;;
13660;SDS011;6903;49.480;11.102;2023-12-20T14:21:01;4.00;;;1.80;;
13660;SDS011;6903;49.480;11.102;2023-12-20T14:23:26;1.10;;;1.00;;
13660;SDS011;6903;49.480;11.102;2023-12-20T14:25:51;3.77;;;1.30;;
13660;SDS011;6903;49.480;11.102;2023-12-20T14:28:16;1.20;;;1.10;;
13660;SDS011;6903;49.480;11.102;2023-12-20T14:30:42;1.43;;;1.07;;
13660;SDS011;6903;49.480;11.102;2023-12-20T14:33:07;1.07;;;0.97;;
13660;SDS011;6903;49.480;11.102;2023-12-20T14:35:33;1.20;;;1.10;;
13660;SDS011;6903;49.480;11.102;2023-12-20T14:37:58;2.37;;;1.30;;
13660;SDS011;6903;49.480;11.102;2023-12-20T14:40:23;2.60;;;1.40;;
13660;SDS011;6903;49.480;11.102;2023-12-20T14:42:48;1.93;;;1.13;;
13660;SDS011;6903;49.480;11.102;2023-12-20T14:45:14;1.30;;;0.90;;